createdAt,value
2023-03-29T00:01:52.055Z,4.65
2023-03-29T00:04:19.193Z,4.40
2023-03-29T00:06:46.182Z,3.97
2023-03-29T00:09:13.293Z,4.68
2023-03-29T00:11:40.486Z,5.28
2023-03-29T00:14:07.503Z,4.63
2023-03-29T00:16:34.662Z,5.57
2023-03-29T00:19:03.098Z,5.20
2023-03-29T00:21:30.364Z,4.80
2023-03-29T00:23:57.701Z,5.38
2023-03-29T00:26:24.687Z,5.03
2023-03-29T00:28:51.636Z,5.00
2023-03-29T00:31:18.901Z,5.43
2023-03-29T00:33:46.178Z,5.70
2023-03-29T00:36:14.519Z,5.43
2023-03-29T00:38:42.017Z,5.70
2023-03-29T00:41:10.125Z,4.95
2023-03-29T00:43:58.918Z,6.18
2023-03-29T00:46:27.589Z,5.72
2023-03-29T00:48:58.538Z,5.72
2023-03-29T00:51:30.542Z,5.55
2023-03-29T00:54:01.823Z,5.80
2023-03-29T00:56:31.030Z,6.38
2023-03-29T00:59:01.546Z,6.75
2023-03-29T01:01:32.166Z,6.45
2023-03-29T01:04:04.609Z,6.15
2023-03-29T01:06:36.455Z,6.63
2023-03-29T01:09:06.160Z,5.70
2023-03-29T01:11:37.085Z,6.97
2023-03-29T01:14:06.451Z,6.20
2023-03-29T01:16:36.108Z,6.70
2023-03-29T01:19:05.198Z,6.63
2023-03-29T01:21:36.853Z,6.45
2023-03-29T01:24:20.304Z,6.45
2023-03-29T01:26:55.210Z,6.18
2023-03-29T01:31:58.162Z,5.30
2023-03-29T01:34:30.208Z,5.32
2023-03-29T01:37:03.417Z,4.82
2023-03-29T01:39:30.860Z,5.50
2023-03-29T01:42:08.618Z,6.10
2023-03-29T01:44:47.466Z,5.22
2023-03-29T01:47:22.127Z,5.47
2023-03-29T01:49:58.055Z,5.68
2023-03-29T01:52:29.905Z,5.32
2023-03-29T01:55:02.874Z,5.22
2023-03-29T01:57:32.602Z,5.90
2023-03-29T02:00:03.145Z,6.30
2023-03-29T02:02:31.778Z,5.07
2023-03-29T02:04:59.568Z,5.40
2023-03-29T02:07:30.125Z,5.57
2023-03-29T02:09:59.173Z,5.90
2023-03-29T02:12:26.112Z,6.20
2023-03-29T02:14:53.077Z,7.07
2023-03-29T02:17:23.273Z,6.15
2023-03-29T02:19:56.121Z,6.45
2023-03-29T02:22:27.560Z,7.65
2023-03-29T02:24:57.722Z,7.53
2023-03-29T02:27:25.047Z,7.43
2023-03-29T02:29:52.071Z,6.93
2023-03-29T02:32:26.495Z,7.28
2023-03-29T02:34:57.850Z,6.55
2023-03-29T02:37:27.389Z,6.85
2023-03-29T02:39:54.489Z,7.18
2023-03-29T02:42:23.140Z,7.30
2023-03-29T02:44:52.602Z,7.35
2023-03-29T02:47:26.055Z,7.97
2023-03-29T02:49:53.235Z,7.25
2023-03-29T02:52:25.561Z,7.60
2023-03-29T02:54:54.352Z,7.38
2023-03-29T02:57:22.788Z,7.07
2023-03-29T02:59:49.801Z,7.70
2023-03-29T03:02:16.817Z,7.68
2023-03-29T03:04:45.325Z,7.97
2023-03-29T03:07:12.232Z,7.18
2023-03-29T03:09:39.247Z,7.80
2023-03-29T03:12:06.737Z,8.45
2023-03-29T03:14:33.664Z,8.10
2023-03-29T03:17:03.112Z,8.25
2023-03-29T03:19:31.408Z,8.27
2023-03-29T03:21:59.743Z,7.55
2023-03-29T03:24:26.824Z,7.57
2023-03-29T03:26:53.838Z,7.70
2023-03-29T03:29:20.867Z,8.35
2023-03-29T03:31:47.878Z,7.78
2023-03-29T03:34:14.851Z,8.48
2023-03-29T03:36:41.817Z,7.78
2023-03-29T03:39:10.200Z,7.65
2023-03-29T03:41:37.229Z,7.97
2023-03-29T03:44:04.321Z,8.27
2023-03-29T03:46:31.255Z,7.43
2023-03-29T03:48:58.526Z,8.20
2023-03-29T03:51:25.934Z,6.78
2023-03-29T03:53:52.905Z,7.93
2023-03-29T03:56:21.216Z,7.40
2023-03-29T03:58:48.112Z,6.90
2023-03-29T04:01:15.146Z,6.65
2023-03-29T04:03:42.144Z,6.63
2023-03-29T04:06:09.472Z,7.20
2023-03-29T04:08:36.466Z,7.57
2023-03-29T04:11:03.839Z,8.23
2023-03-29T04:13:32.338Z,7.85
2023-03-29T04:16:01.429Z,8.43
2023-03-29T04:18:28.848Z,7.82
2023-03-29T04:20:55.840Z,8.32
2023-03-29T04:23:22.798Z,8.52
2023-03-29T04:25:49.707Z,8.00
2023-03-29T04:28:16.620Z,8.00
2023-03-29T04:30:46.098Z,8.20
2023-03-29T04:33:13.039Z,9.07
2023-03-29T04:35:40.255Z,8.75
2023-03-29T04:38:07.274Z,8.15
2023-03-29T04:40:34.186Z,8.98
2023-03-29T04:43:01.129Z,8.35
2023-03-29T04:45:28.283Z,8.60
2023-03-29T04:47:58.107Z,8.65
2023-03-29T04:50:25.060Z,8.73
2023-03-29T04:52:52.115Z,8.90
2023-03-29T04:55:19.270Z,8.73
2023-03-29T04:57:46.201Z,8.27
2023-03-29T05:00:14.131Z,8.98
2023-03-29T05:02:41.786Z,8.35
2023-03-29T05:05:10.943Z,8.43
2023-03-29T05:07:38.213Z,8.77
2023-03-29T05:10:06.420Z,8.90
2023-03-29T05:12:33.552Z,12.38
2023-03-29T05:15:00.478Z,9.45
2023-03-29T05:17:27.657Z,10.82
2023-03-29T05:19:54.760Z,9.27
2023-03-29T05:22:23.181Z,9.45
2023-03-29T05:24:50.356Z,10.75
2023-03-29T05:27:17.333Z,9.05
2023-03-29T05:29:44.309Z,9.00
2023-03-29T05:32:11.445Z,9.05
2023-03-29T05:34:38.493Z,8.95
2023-03-29T05:37:05.626Z,9.07
2023-03-29T05:39:36.375Z,8.88
2023-03-29T05:42:04.941Z,8.77
2023-03-29T05:44:31.939Z,9.10
2023-03-29T05:46:58.939Z,7.28
2023-03-29T05:49:25.969Z,8.95
2023-03-29T05:51:53.039Z,7.53
2023-03-29T05:54:20.009Z,7.88
2023-03-29T05:56:48.307Z,7.30
2023-03-29T05:59:15.314Z,7.35
2023-03-29T06:01:42.259Z,7.03
2023-03-29T06:04:09.301Z,6.82
2023-03-29T06:06:36.494Z,7.28
2023-03-29T06:09:03.488Z,7.20
2023-03-29T06:11:30.606Z,7.20
2023-03-29T06:13:59.280Z,7.55
2023-03-29T06:16:26.352Z,6.88
2023-03-29T06:18:53.381Z,6.70
2023-03-29T06:21:20.318Z,6.80
2023-03-29T06:23:47.442Z,6.88
2023-03-29T06:26:14.583Z,6.75
2023-03-29T06:28:41.511Z,7.97
2023-03-29T06:31:10.118Z,7.10
2023-03-29T06:33:37.343Z,8.38
2023-03-29T06:36:04.919Z,7.93
2023-03-29T06:38:31.958Z,8.70
2023-03-29T06:41:03.016Z,6.70
2023-03-29T06:43:30.164Z,6.47
2023-03-29T06:45:57.167Z,7.32
2023-03-29T06:48:25.539Z,6.57
2023-03-29T06:50:52.456Z,6.07
2023-03-29T06:53:19.411Z,6.85
2023-03-29T06:55:46.374Z,6.97
2023-03-29T06:58:13.316Z,6.90
2023-03-29T07:00:40.562Z,5.90
2023-03-29T07:03:09.122Z,6.43
2023-03-29T07:05:37.412Z,6.85
2023-03-29T07:08:04.679Z,6.15
2023-03-29T07:10:37.660Z,5.45
2023-03-29T07:13:05.449Z,5.68
2023-03-29T07:15:32.994Z,5.20
2023-03-29T07:18:00.268Z,5.43
2023-03-29T07:20:27.323Z,5.57
2023-03-29T07:22:55.862Z,5.38
2023-03-29T07:25:24.070Z,4.53
2023-03-29T07:27:51.428Z,5.82
2023-03-29T07:30:21.186Z,5.45
2023-03-29T07:32:49.925Z,6.05
2023-03-29T07:35:18.380Z,5.75
2023-03-29T07:37:46.038Z,5.50
2023-03-29T07:40:16.211Z,5.72
2023-03-29T07:42:43.638Z,5.70
2023-03-29T07:45:12.188Z,6.55
2023-03-29T07:47:39.135Z,5.90
2023-03-29T07:50:07.650Z,5.43
2023-03-29T07:52:36.114Z,5.80
2023-03-29T07:55:03.169Z,5.32
2023-03-29T07:57:31.778Z,6.00
2023-03-29T07:59:58.954Z,6.03
2023-03-29T08:02:26.435Z,5.50
2023-03-29T08:04:54.247Z,5.50
2023-03-29T08:07:21.200Z,5.60
2023-03-29T08:09:48.206Z,5.82
2023-03-29T08:12:15.238Z,5.47
2023-03-29T08:14:43.538Z,5.82
2023-03-29T08:17:10.513Z,5.50
2023-03-29T08:19:37.676Z,5.90
2023-03-29T08:22:04.678Z,5.90
2023-03-29T08:24:31.609Z,5.65
2023-03-29T08:26:58.594Z,5.90
2023-03-29T08:29:26.761Z,6.53
2023-03-29T08:31:55.054Z,6.07
2023-03-29T08:34:22.027Z,5.40
2023-03-29T08:36:48.987Z,5.38
2023-03-29T08:39:16.892Z,5.05
2023-03-29T08:41:55.361Z,5.85
2023-03-29T08:44:47.159Z,5.88
2023-03-29T08:47:21.107Z,5.75
2023-03-29T08:49:52.673Z,5.20
2023-03-29T08:52:28.875Z,6.03
2023-03-29T08:54:57.188Z,5.78
2023-03-29T08:57:29.072Z,5.97
2023-03-29T08:59:58.547Z,6.32
2023-03-29T09:02:30.814Z,5.53
2023-03-29T09:05:02.499Z,6.40
2023-03-29T09:07:29.451Z,6.20
2023-03-29T09:09:56.427Z,5.57
2023-03-29T09:12:33.282Z,6.18
2023-03-29T09:15:13.207Z,6.30
2023-03-29T09:17:53.439Z,6.18
2023-03-29T09:20:36.436Z,5.68
2023-03-29T09:23:28.372Z,5.55
2023-03-29T09:26:04.420Z,6.60
2023-03-29T09:28:37.194Z,6.10
2023-03-29T09:31:12.133Z,6.18
2023-03-29T09:36:12.244Z,6.18
2023-03-29T09:38:43.583Z,8.48
2023-03-29T09:41:20.250Z,6.25
2023-03-29T09:43:49.230Z,6.00
2023-03-29T09:46:21.402Z,5.30
2023-03-29T09:48:50.901Z,6.45
2023-03-29T09:51:22.820Z,5.63
2023-03-29T09:53:50.353Z,5.25
2023-03-29T09:56:17.390Z,4.90
2023-03-29T09:58:45.538Z,5.75
2023-03-29T10:01:15.891Z,5.25
2023-03-29T10:03:50.575Z,5.68
2023-03-29T10:06:19.405Z,5.80
2023-03-29T10:08:52.878Z,5.65
2023-03-29T10:11:23.395Z,5.07
2023-03-29T10:13:53.197Z,5.22
2023-03-29T10:16:21.910Z,4.63
2023-03-29T10:18:50.712Z,5.93
2023-03-29T10:21:19.517Z,5.40
2023-03-29T10:23:47.203Z,5.55
2023-03-29T10:26:23.198Z,5.78
2023-03-29T10:28:52.808Z,5.68
2023-03-29T10:31:21.799Z,5.13
2023-03-29T10:33:54.272Z,5.43
2023-03-29T10:36:23.209Z,4.72
2023-03-29T10:38:51.688Z,5.20
2023-03-29T10:41:20.982Z,5.97
2023-03-29T10:43:50.320Z,5.18
2023-03-29T10:46:21.646Z,5.22
2023-03-29T10:48:50.303Z,5.53
2023-03-29T10:51:19.913Z,5.57
2023-03-29T10:53:47.873Z,5.60
2023-03-29T10:56:28.627Z,5.53
2023-03-29T10:59:18.364Z,5.35
2023-03-29T11:01:58.172Z,4.20
2023-03-29T11:04:34.550Z,4.00
2023-03-29T11:07:25.787Z,3.80
2023-03-29T11:10:01.205Z,3.40
2023-03-29T11:12:33.071Z,4.38
2023-03-29T11:15:14.934Z,4.35
2023-03-29T11:17:53.976Z,4.00
2023-03-29T11:20:28.843Z,4.57
2023-03-29T11:25:44.164Z,3.95
2023-03-29T11:28:17.042Z,4.45
2023-03-29T11:30:51.761Z,4.47
2023-03-29T11:33:37.034Z,4.05
2023-03-29T11:36:11.956Z,4.18
2023-03-29T11:38:47.466Z,4.40
2023-03-29T11:41:18.087Z,4.88
2023-03-29T11:43:48.965Z,5.30
2023-03-29T11:46:21.456Z,5.63
2023-03-29T11:48:54.622Z,5.88
2023-03-29T11:51:25.266Z,5.40
2023-03-29T11:54:00.930Z,5.05
2023-03-29T11:56:33.311Z,5.45
2023-03-29T11:59:05.656Z,4.88
2023-03-29T12:01:35.462Z,5.10
2023-03-29T12:04:07.369Z,4.45
2023-03-29T12:06:39.627Z,4.80
2023-03-29T12:09:16.788Z,5.07
2023-03-29T12:11:50.110Z,4.95
2023-03-29T12:14:21.885Z,5.30
2023-03-29T12:16:53.360Z,4.72
2023-03-29T12:19:23.980Z,5.18
2023-03-29T12:21:52.641Z,5.57
2023-03-29T12:24:21.414Z,5.13
2023-03-29T12:27:08.419Z,3.92
2023-03-29T12:29:52.895Z,4.72
2023-03-29T12:32:34.829Z,4.68
2023-03-29T12:35:18.036Z,5.00
2023-03-29T12:37:51.065Z,3.88
2023-03-29T12:40:21.445Z,4.00
2023-03-29T12:42:52.146Z,3.88
2023-03-29T12:45:21.000Z,3.85
2023-03-29T12:47:50.554Z,4.30
2023-03-29T12:50:32.304Z,4.00
2023-03-29T12:53:06.279Z,3.95
2023-03-29T12:55:49.052Z,3.40
2023-03-29T12:58:37.798Z,3.25
2023-03-29T13:01:07.691Z,3.28
2023-03-29T13:03:48.703Z,3.92
2023-03-29T13:06:29.847Z,3.83
2023-03-29T13:09:02.208Z,4.20
2023-03-29T13:11:33.794Z,4.40
2023-03-29T13:14:03.162Z,4.22
2023-03-29T13:16:33.114Z,4.43
2023-03-29T13:19:12.062Z,4.40
2023-03-29T13:21:49.652Z,4.35
2023-03-29T13:24:33.308Z,4.45
2023-03-29T13:27:10.012Z,4.00
2023-03-29T13:29:48.230Z,4.72
2023-03-29T13:32:38.368Z,4.30
2023-03-29T13:35:15.272Z,4.25
2023-03-29T13:37:52.516Z,4.15
2023-03-29T13:40:33.098Z,4.25
2023-03-29T13:43:08.989Z,4.03
2023-03-29T13:45:37.134Z,3.28
2023-03-29T13:48:19.857Z,3.30
2023-03-29T13:50:53.322Z,4.70
2023-03-29T13:53:27.514Z,4.60
2023-03-29T13:55:57.399Z,4.40
2023-03-29T13:58:36.430Z,4.35
2023-03-29T14:01:11.729Z,3.72
2023-03-29T14:03:43.675Z,3.40
2023-03-29T14:06:14.811Z,3.90
2023-03-29T14:08:43.713Z,3.75
2023-03-29T14:11:20.030Z,4.03
2023-03-29T14:13:49.075Z,4.22
2023-03-29T14:16:16.100Z,4.15
2023-03-29T14:18:43.729Z,4.10
2023-03-29T14:21:13.877Z,3.75
2023-03-29T14:23:45.275Z,3.53
2023-03-29T14:26:16.682Z,4.07
2023-03-29T14:28:48.754Z,4.22
2023-03-29T14:31:20.230Z,4.25
2023-03-29T14:33:52.381Z,4.60
2023-03-29T14:36:20.112Z,3.95
2023-03-29T14:38:50.669Z,4.53
2023-03-29T14:41:17.610Z,4.97
2023-03-29T14:43:45.034Z,4.78
2023-03-29T14:46:18.338Z,4.72
2023-03-29T14:48:46.122Z,5.15
2023-03-29T14:51:13.446Z,5.30
2023-03-29T14:53:41.336Z,5.38
2023-03-29T14:56:13.255Z,5.50
2023-03-29T14:58:45.363Z,5.78
2023-03-29T15:01:17.859Z,5.35
2023-03-29T15:03:50.144Z,5.40
2023-03-29T15:06:17.239Z,5.43
2023-03-29T15:08:57.654Z,5.43
2023-03-29T15:11:31.424Z,6.03
2023-03-29T15:14:03.041Z,5.32
2023-03-29T15:16:32.291Z,5.82
2023-03-29T15:19:01.696Z,5.32
2023-03-29T15:21:33.245Z,5.15
2023-03-29T15:24:01.902Z,4.70
2023-03-29T15:26:31.255Z,5.40
2023-03-29T15:29:05.479Z,5.28
2023-03-29T15:31:36.509Z,5.30
2023-03-29T15:34:06.937Z,4.85
2023-03-29T15:36:40.033Z,4.50
2023-03-29T15:39:10.178Z,5.10
2023-03-29T15:41:37.113Z,4.43
2023-03-29T15:44:04.123Z,4.80
2023-03-29T15:46:31.187Z,4.47
2023-03-29T15:48:59.908Z,4.90
2023-03-29T15:51:27.173Z,4.10
2023-03-29T15:53:54.097Z,4.38
2023-03-29T15:56:21.865Z,4.10
2023-03-29T15:58:49.408Z,4.20
2023-03-29T16:01:22.907Z,4.10
2023-03-29T16:03:50.546Z,4.22
2023-03-29T16:06:18.863Z,4.65
2023-03-29T16:08:45.804Z,4.18
2023-03-29T16:11:12.759Z,4.70
2023-03-29T16:13:39.747Z,4.25
2023-03-29T16:16:09.519Z,4.55
2023-03-29T16:18:36.594Z,4.30
2023-03-29T16:21:03.728Z,4.63
2023-03-29T16:23:32.053Z,4.25
2023-03-29T16:25:59.008Z,3.58
2023-03-29T16:28:26.034Z,4.30
2023-03-29T16:30:53.319Z,3.78
2023-03-29T16:33:20.276Z,3.92
2023-03-29T16:35:47.247Z,4.53
2023-03-29T16:38:14.298Z,3.88
2023-03-29T16:40:42.797Z,3.72
2023-03-29T16:43:14.272Z,4.50
2023-03-29T16:45:41.263Z,4.00
2023-03-29T16:48:12.059Z,4.25
2023-03-29T16:50:39.301Z,4.05
2023-03-29T16:53:06.265Z,4.57
2023-03-29T16:55:33.230Z,4.82
2023-03-29T16:58:01.619Z,4.63
2023-03-29T17:00:28.538Z,4.28
2023-03-29T17:02:55.611Z,4.65
2023-03-29T17:05:23.261Z,3.90
2023-03-29T17:07:50.356Z,4.20
2023-03-29T17:10:17.433Z,3.55
2023-03-29T17:12:44.510Z,3.88
2023-03-29T17:15:12.939Z,6.22
2023-03-29T17:17:39.998Z,10.88
2023-03-29T17:20:08.458Z,6.20
2023-03-29T17:22:35.839Z,5.90
2023-03-29T17:25:02.839Z,5.65
2023-03-29T17:27:30.054Z,7.57
2023-03-29T17:29:57.007Z,6.88
2023-03-29T17:32:25.515Z,6.68
2023-03-29T17:34:52.600Z,19.05
2023-03-29T17:37:19.658Z,6.18
2023-03-29T17:39:46.746Z,4.88
2023-03-29T17:42:13.664Z,5.15
2023-03-29T17:44:40.606Z,4.70
2023-03-29T17:47:07.680Z,4.97
2023-03-29T17:49:36.071Z,4.63
2023-03-29T17:52:03.259Z,4.28
2023-03-29T17:54:30.190Z,4.55
2023-03-29T17:56:57.160Z,3.63
2023-03-29T17:59:24.333Z,4.20
2023-03-29T18:01:51.337Z,4.60
2023-03-29T18:04:18.254Z,3.90
2023-03-29T18:06:46.519Z,4.80
2023-03-29T18:09:13.747Z,5.75
2023-03-29T18:11:40.631Z,4.35
2023-03-29T18:14:07.583Z,4.68
2023-03-29T18:16:34.673Z,4.00
2023-03-29T18:19:01.629Z,3.70
2023-03-29T18:21:28.593Z,4.57
2023-03-29T18:23:57.170Z,4.50
2023-03-29T18:26:24.451Z,4.53
2023-03-29T18:28:51.489Z,4.88
2023-03-29T18:31:18.539Z,4.30
2023-03-29T18:33:45.724Z,5.47
2023-03-29T18:36:13.814Z,4.40
2023-03-29T18:38:41.870Z,4.85
2023-03-29T18:41:11.221Z,4.88
2023-03-29T18:43:38.753Z,5.88
2023-03-29T18:46:06.531Z,5.32
2023-03-29T18:48:33.851Z,5.28
2023-03-29T18:51:02.270Z,5.63
2023-03-29T18:53:30.404Z,4.18
2023-03-29T18:55:57.350Z,5.03
2023-03-29T18:58:25.731Z,4.70
2023-03-29T19:00:52.844Z,4.75
2023-03-29T19:03:19.878Z,4.97
2023-03-29T19:05:46.977Z,5.20
2023-03-29T19:08:13.883Z,5.43
2023-03-29T19:10:40.858Z,4.80
2023-03-29T19:13:07.798Z,4.40
2023-03-29T19:15:36.161Z,4.22
2023-03-29T19:18:03.211Z,4.63
2023-03-29T19:20:30.182Z,5.25
2023-03-29T19:22:57.111Z,7.65
2023-03-29T19:25:24.062Z,4.82
2023-03-29T19:27:51.130Z,5.03
2023-03-29T19:30:18.221Z,4.90
2023-03-29T19:32:46.693Z,5.40
2023-03-29T19:35:14.662Z,5.13
2023-03-29T19:37:41.726Z,4.70
2023-03-29T19:40:09.395Z,4.88
2023-03-29T19:42:36.718Z,4.20
2023-03-29T19:45:04.548Z,5.00
2023-03-29T19:47:31.548Z,4.20
2023-03-29T19:50:00.285Z,4.75
2023-03-29T19:52:27.827Z,4.80
2023-03-29T19:54:54.792Z,4.68
2023-03-29T19:57:21.932Z,4.55
2023-03-29T19:59:48.915Z,4.50
2023-03-29T20:02:15.887Z,5.25
2023-03-29T20:04:42.943Z,4.20
2023-03-29T20:07:11.381Z,4.95
2023-03-29T20:09:38.326Z,4.80
2023-03-29T20:12:05.426Z,4.70
2023-03-29T20:14:32.716Z,4.00
2023-03-29T20:16:59.679Z,4.00
2023-03-29T20:19:26.566Z,4.15
2023-03-29T20:21:54.165Z,4.07
2023-03-29T20:24:22.783Z,3.58
2023-03-29T20:26:49.971Z,3.63
2023-03-29T20:29:17.003Z,3.92
2023-03-29T20:31:43.953Z,3.15
2023-03-29T20:34:11.182Z,3.40
2023-03-29T20:36:38.729Z,3.90
2023-03-29T20:39:05.779Z,3.53
2023-03-29T20:41:34.126Z,3.22
2023-03-29T20:44:01.081Z,2.80
2023-03-29T20:46:29.052Z,3.15
2023-03-29T20:48:56.000Z,3.40
2023-03-29T20:51:23.841Z,3.08
2023-03-29T20:53:50.802Z,3.03
2023-03-29T20:56:17.732Z,3.38
2023-03-29T20:58:46.241Z,3.08
2023-03-29T21:01:13.195Z,3.63
2023-03-29T21:03:40.342Z,3.78
2023-03-29T21:06:07.405Z,3.60
2023-03-29T21:08:34.354Z,3.13
2023-03-29T21:11:01.418Z,3.13
2023-03-29T21:13:28.462Z,3.13
2023-03-29T21:15:56.805Z,3.08
2023-03-29T21:18:23.710Z,2.85
2023-03-29T21:20:50.668Z,3.05
2023-03-29T21:23:17.586Z,2.90
2023-03-29T21:25:44.486Z,3.22
2023-03-29T21:28:11.441Z,3.60
2023-03-29T21:30:38.303Z,2.95
2023-03-29T21:33:06.685Z,3.00
2023-03-29T21:35:33.667Z,2.90
2023-03-29T21:38:00.603Z,2.60
2023-03-29T21:40:27.568Z,2.92
2023-03-29T21:42:54.553Z,2.60
2023-03-29T21:45:21.598Z,2.60
2023-03-29T21:47:48.567Z,2.50
2023-03-29T21:50:17.185Z,2.97
2023-03-29T21:52:44.184Z,2.50
2023-03-29T21:55:11.131Z,2.42
2023-03-29T21:57:38.044Z,2.92
2023-03-29T22:00:06.909Z,2.60
2023-03-29T22:02:34.268Z,2.35
2023-03-29T22:05:01.312Z,3.03
2023-03-29T22:07:29.641Z,2.83
2023-03-29T22:09:56.562Z,2.60
2023-03-29T22:12:23.536Z,2.50
2023-03-29T22:14:50.432Z,2.25
2023-03-29T22:17:17.353Z,2.00
2023-03-29T22:19:44.397Z,2.63
2023-03-29T22:22:14.256Z,2.38
2023-03-29T22:24:42.682Z,2.47
2023-03-29T22:27:10.121Z,2.65
2023-03-29T22:29:37.108Z,2.45
2023-03-29T22:32:04.177Z,2.53
2023-03-29T22:34:31.677Z,2.45
2023-03-29T22:36:58.578Z,2.30
2023-03-29T22:39:25.501Z,2.97
2023-03-29T22:41:53.854Z,2.55
2023-03-29T22:44:20.967Z,2.90
2023-03-29T22:46:47.889Z,3.03
2023-03-29T22:49:14.870Z,2.92
2023-03-29T22:51:41.953Z,3.13
2023-03-29T22:54:08.912Z,3.30
2023-03-29T22:56:35.872Z,2.72
2023-03-29T22:59:04.165Z,2.92
2023-03-29T23:01:31.118Z,2.97
2023-03-29T23:03:58.172Z,3.00
2023-03-29T23:06:25.167Z,3.13
2023-03-29T23:08:52.101Z,2.60
2023-03-29T23:11:19.240Z,2.97
2023-03-29T23:13:46.161Z,3.20
2023-03-29T23:16:15.008Z,2.83
2023-03-29T23:18:42.149Z,2.63
2023-03-29T23:21:09.125Z,2.80
2023-03-29T23:23:36.095Z,3.45
2023-03-29T23:26:03.179Z,2.90
2023-03-29T23:28:30.906Z,3.00
2023-03-29T23:30:59.967Z,3.10
2023-03-29T23:33:29.474Z,3.10
2023-03-29T23:35:56.819Z,3.17
2023-03-29T23:38:23.763Z,3.42
2023-03-29T23:40:54.756Z,3.22
2023-03-29T23:43:21.762Z,2.92
2023-03-29T23:45:54.856Z,2.58
2023-03-29T23:48:21.793Z,3.35
2023-03-29T23:50:50.139Z,3.03
2023-03-29T23:53:17.081Z,3.08
2023-03-29T23:55:45.074Z,2.58
2023-03-29T23:58:11.999Z,3.30
